SIA225 WSSS-YPPH
Flight info
| Callsign | SIA225 |
|---|---|
| Flight time | N/A |
| Altitude | 37000 |
| Route | ANITO8B ANITO B470 PKP L764 LAMOB B469 IDOKU/N0486F390 B469 TOPIR/N0480F380 L514 AVPAL Q38 JULIM |
| Aircraft | B78X/H-SDE1E2E3FGHIJ2J3J4J5M1RWXY/LB1D1 |
Departure
| Time | N/A |
|---|---|
| Airport | Singapore Changi Airport (WSSS) |
Arrival
| Time | 2026-05-01 14:36 |
|---|---|
| Airport | Perth International Airport (YPPH) |
| Time | Latitude | Longitude | Altitude | Speed | Heading |
|---|---|---|---|---|---|
| 2026-05-01 14:07 | -29.68445 | 116.65527 | 39296 ft | 465 kts | 188° |
| 2026-05-01 14:07 | -29.71675 | 116.65441 | 39300 ft | 465 kts | 188° |
| 2026-05-01 14:08 | -29.81343 | 116.65181 | 39308 ft | 464 kts | 188° |
| 2026-05-01 14:08 | -29.87803 | 116.65007 | 39302 ft | 463 kts | 188° |
| 2026-05-01 14:09 | -29.94258 | 116.64833 | 39305 ft | 463 kts | 187° |
| 2026-05-01 14:09 | -30.00655 | 116.64661 | 39307 ft | 462 kts | 187° |
| 2026-05-01 14:10 | -30.07071 | 116.64489 | 39141 ft | 458 kts | 187° |
| 2026-05-01 14:10 | -30.10242 | 116.64404 | 38717 ft | 453 kts | 187° |
| 2026-05-01 14:10 | -30.13393 | 116.64318 | 38247 ft | 449 kts | 187° |
| 2026-05-01 14:10 | -30.16467 | 116.64234 | 37794 ft | 445 kts | 187° |
| 2026-05-01 14:11 | -30.19552 | 116.64151 | 37352 ft | 440 kts | 186° |
| 2026-05-01 14:11 | -30.25573 | 116.63990 | 35734 ft | 423 kts | 185° |
| 2026-05-01 14:11 | -30.28499 | 116.63909 | 34768 ft | 415 kts | 184° |
| 2026-05-01 14:12 | -30.31320 | 116.63832 | 33801 ft | 406 kts | 183° |
| 2026-05-01 14:12 | -30.34121 | 116.63757 | 32776 ft | 398 kts | 183° |
| 2026-05-01 14:12 | -30.36854 | 116.63682 | 31771 ft | 390 kts | 183° |
| 2026-05-01 14:12 | -30.39541 | 116.63609 | 30791 ft | 382 kts | 183° |
| 2026-05-01 14:13 | -30.42177 | 116.63537 | 29737 ft | 375 kts | 183° |
| 2026-05-01 14:13 | -30.44761 | 116.63467 | 28640 ft | 369 kts | 183° |
| 2026-05-01 14:13 | -30.47307 | 116.63398 | 27591 ft | 362 kts | 183° |
| 2026-05-01 14:13 | -30.49807 | 116.63330 | 26570 ft | 356 kts | 184° |
| 2026-05-01 14:14 | -30.52270 | 116.63263 | 25576 ft | 350 kts | 184° |
| 2026-05-01 14:14 | -30.54681 | 116.63146 | 24598 ft | 343 kts | 191° |
| 2026-05-01 14:14 | -30.56977 | 116.62544 | 23627 ft | 335 kts | 201° |
| 2026-05-01 14:14 | -30.59144 | 116.61697 | 22506 ft | 330 kts | 199° |
| 2026-05-01 14:15 | -30.61315 | 116.60866 | 21449 ft | 326 kts | 200° |
| 2026-05-01 14:15 | -30.63455 | 116.60036 | 20427 ft | 321 kts | 200° |
| 2026-05-01 14:15 | -30.65566 | 116.59211 | 19434 ft | 317 kts | 200° |
| 2026-05-01 14:15 | -30.67644 | 116.58402 | 18452 ft | 313 kts | 200° |
| 2026-05-01 14:16 | -30.69700 | 116.57604 | 17396 ft | 309 kts | 200° |
| 2026-05-01 14:16 | -30.71728 | 116.56815 | 16392 ft | 304 kts | 199° |
| 2026-05-01 14:16 | -30.73691 | 116.56051 | 15419 ft | 299 kts | 199° |
| 2026-05-01 14:16 | -30.75656 | 116.55286 | 14475 ft | 294 kts | 199° |
| 2026-05-01 14:17 | -30.77581 | 116.54535 | 13470 ft | 290 kts | 198° |
| 2026-05-01 14:17 | -30.79498 | 116.53788 | 12658 ft | 290 kts | 198° |
| 2026-05-01 14:17 | -30.81407 | 116.53044 | 12041 ft | 291 kts | 198° |
| 2026-05-01 14:17 | -30.83339 | 116.52290 | 11353 ft | 295 kts | 198° |
| 2026-05-01 14:18 | -30.85271 | 116.51536 | 10745 ft | 297 kts | 198° |
| 2026-05-01 14:18 | -30.87232 | 116.50771 | 10176 ft | 297 kts | 197° |
| 2026-05-01 14:18 | -30.89191 | 116.50006 | 9545 ft | 296 kts | 197° |
| 2026-05-01 14:18 | -30.90485 | 116.49500 | 9196 ft | 296 kts | 197° |
| 2026-05-01 14:19 | -30.93103 | 116.48477 | 9021 ft | 297 kts | 197° |
| 2026-05-01 14:19 | -30.95075 | 116.47706 | 9020 ft | 299 kts | 197° |
| 2026-05-01 14:19 | -30.97043 | 116.46936 | 9025 ft | 298 kts | 197° |
| 2026-05-01 14:19 | -30.99012 | 116.46165 | 9016 ft | 299 kts | 197° |
| 2026-05-01 14:20 | -31.00984 | 116.45392 | 9020 ft | 298 kts | 197° |
| 2026-05-01 14:20 | -31.04913 | 116.43853 | 9020 ft | 298 kts | 197° |
| 2026-05-01 14:20 | -31.06879 | 116.43082 | 9021 ft | 298 kts | 197° |
| 2026-05-01 14:21 | -31.08847 | 116.42310 | 9020 ft | 298 kts | 197° |
| 2026-05-01 14:21 | -31.10811 | 116.41539 | 9019 ft | 298 kts | 197° |
| 2026-05-01 14:21 | -31.12772 | 116.40770 | 9022 ft | 297 kts | 197° |
| 2026-05-01 14:22 | -31.16665 | 116.39239 | 9021 ft | 297 kts | 197° |
| 2026-05-01 14:22 | -31.18624 | 116.38469 | 8990 ft | 295 kts | 197° |
| 2026-05-01 14:22 | -31.20557 | 116.37708 | 8570 ft | 292 kts | 197° |
| 2026-05-01 14:22 | -31.22490 | 116.36948 | 7994 ft | 293 kts | 197° |
| 2026-05-01 14:23 | -31.24422 | 116.36188 | 7455 ft | 293 kts | 197° |
| 2026-05-01 14:23 | -31.26359 | 116.35425 | 6932 ft | 293 kts | 197° |
| 2026-05-01 14:23 | -31.28273 | 116.34671 | 6408 ft | 293 kts | 197° |
| 2026-05-01 14:23 | -31.30195 | 116.33913 | 5892 ft | 291 kts | 197° |
| 2026-05-01 14:24 | -31.32111 | 116.33157 | 5382 ft | 290 kts | 197° |
| 2026-05-01 14:24 | -31.34012 | 116.32407 | 5033 ft | 287 kts | 197° |
| 2026-05-01 14:24 | -31.35910 | 116.31658 | 5029 ft | 288 kts | 197° |
| 2026-05-01 14:24 | -31.37818 | 116.30905 | 5025 ft | 289 kts | 197° |
| 2026-05-01 14:25 | -31.39721 | 116.30154 | 5031 ft | 289 kts | 197° |
| 2026-05-01 14:25 | -31.41622 | 116.29380 | 5026 ft | 289 kts | 201° |
| 2026-05-01 14:25 | -31.43381 | 116.28220 | 5024 ft | 291 kts | 207° |
| 2026-05-01 14:25 | -31.45171 | 116.27111 | 5031 ft | 291 kts | 205° |
| 2026-05-01 14:26 | -31.46960 | 116.26009 | 5029 ft | 291 kts | 206° |
| 2026-05-01 14:26 | -31.50486 | 116.23738 | 5026 ft | 291 kts | 207° |
| 2026-05-01 14:26 | -31.52265 | 116.22599 | 5028 ft | 291 kts | 206° |
| 2026-05-01 14:27 | -31.53997 | 116.21493 | 5012 ft | 273 kts | 206° |
| 2026-05-01 14:27 | -31.55598 | 116.20466 | 4999 ft | 252 kts | 206° |
| 2026-05-01 14:27 | -31.57087 | 116.19512 | 5016 ft | 242 kts | 206° |
| 2026-05-01 14:28 | -31.60007 | 116.17644 | 5017 ft | 238 kts | 206° |
| 2026-05-01 14:28 | -31.61459 | 116.16713 | 5014 ft | 238 kts | 206° |
| 2026-05-01 14:28 | -31.62914 | 116.15779 | 5013 ft | 238 kts | 206° |
| 2026-05-01 14:28 | -31.64356 | 116.14854 | 4933 ft | 234 kts | 206° |
| 2026-05-01 14:29 | -31.65787 | 116.13935 | 4585 ft | 234 kts | 206° |
| 2026-05-01 14:29 | -31.67220 | 116.13016 | 4269 ft | 234 kts | 206° |
| 2026-05-01 14:30 | -31.71437 | 116.10304 | 2862 ft | 227 kts | 206° |
| 2026-05-01 14:30 | -31.72773 | 116.09443 | 2502 ft | 208 kts | 205° |
| 2026-05-01 14:30 | -31.73957 | 116.08678 | 2492 ft | 182 kts | 205° |
| 2026-05-01 14:31 | -31.75864 | 116.06875 | 2526 ft | 183 kts | 233° |
| 2026-05-01 14:31 | -31.76632 | 116.05697 | 2497 ft | 179 kts | 225° |
| 2026-05-01 14:31 | -31.77427 | 116.04544 | 2508 ft | 180 kts | 227° |
| 2026-05-01 14:31 | -31.78183 | 116.03390 | 2525 ft | 181 kts | 228° |
| 2026-05-01 14:32 | -31.78904 | 116.02268 | 2513 ft | 162 kts | 227° |
| 2026-05-01 14:32 | -31.79591 | 116.01209 | 2510 ft | 157 kts | 227° |
| 2026-05-01 14:32 | -31.80476 | 116.00556 | 2513 ft | 149 kts | 185° |
| 2026-05-01 14:32 | -31.81500 | 116.00265 | 2436 ft | 157 kts | 195° |
| 2026-05-01 14:33 | -31.82495 | 115.99917 | 2200 ft | 141 kts | 191° |
| 2026-05-01 14:33 | -31.83424 | 115.99621 | 2002 ft | 137 kts | 190° |
| 2026-05-01 14:33 | -31.84347 | 115.99349 | 1818 ft | 136 kts | 190° |
| 2026-05-01 14:33 | -31.85252 | 115.99084 | 1629 ft | 136 kts | 190° |
| 2026-05-01 14:34 | -31.86169 | 115.98815 | 1445 ft | 136 kts | 191° |
| 2026-05-01 14:34 | -31.87099 | 115.98543 | 1247 ft | 138 kts | 191° |
| 2026-05-01 14:34 | -31.88038 | 115.98269 | 1048 ft | 139 kts | 192° |
| 2026-05-01 14:34 | -31.88973 | 115.97986 | 836 ft | 139 kts | 194° |
| 2026-05-01 14:35 | -31.89909 | 115.97701 | 651 ft | 138 kts | 193° |
| 2026-05-01 14:35 | -31.90837 | 115.97431 | 479 ft | 139 kts | 193° |
| 2026-05-01 14:35 | -31.91767 | 115.97167 | 308 ft | 137 kts | 193° |
| 2026-05-01 14:35 | -31.92688 | 115.96894 | 123 ft | 135 kts | 193° |
| 2026-05-01 14:36 | -31.93490 | 115.96661 | 59 ft | 83 kts | 194° |
| 2026-05-01 14:36 | -31.93812 | 115.96570 | 67 ft | 33 kts | 193° |
| 2026-05-01 14:36 | -31.94023 | 115.96507 | 68 ft | 29 kts | 194° |
| 2026-05-01 14:36 | -31.94117 | 115.96509 | 67 ft | 3 kts | 109° |
| 2026-05-01 14:37 | -31.94113 | 115.96532 | 65 ft | 5 kts | 79° |
| 2026-05-01 14:37 | -31.94095 | 115.96580 | 66 ft | 8 kts | 61° |
| 2026-05-01 14:37 | -31.94064 | 115.96646 | 65 ft | 10 kts | 58° |
| 2026-05-01 14:37 | -31.94025 | 115.96723 | 65 ft | 11 kts | 59° |
| 2026-05-01 14:38 | -31.93990 | 115.96795 | 65 ft | 10 kts | 68° |
| 2026-05-01 14:38 | -31.94005 | 115.96842 | 62 ft | 4 kts | 148° |
| 2026-05-01 14:38 | -31.94049 | 115.96850 | 68 ft | 10 kts | 183° |
| 2026-05-01 14:38 | -31.94119 | 115.96832 | 69 ft | 10 kts | 197° |
| 2026-05-01 14:39 | -31.94178 | 115.96856 | 64 ft | 9 kts | 129° |
| 2026-05-01 14:39 | -31.94204 | 115.96931 | 64 ft | 10 kts | 106° |
| 2026-05-01 14:39 | -31.94205 | 115.96983 | 69 ft | 5 kts | 68° |
| 2026-05-01 14:39 | -31.94179 | 115.97001 | 66 ft | 5 kts | 22° |
| 2026-05-01 14:40 | -31.94165 | 115.97006 | 69 ft | 0 kts | 17° |